createdAt,value
2023-10-22T09:30:31.965Z,1001.29
2023-10-22T09:31:30.303Z,1001.25
2023-10-22T09:32:31.041Z,1001.24
2023-10-22T09:33:30.263Z,1001.24
2023-10-22T09:34:30.206Z,1001.26
2023-10-22T09:35:30.174Z,1001.23
2023-10-22T09:36:30.433Z,1001.33
2023-10-22T09:37:30.172Z,1001.34
2023-10-22T09:38:30.132Z,1001.37
2023-10-22T09:39:30.933Z,1001.39
2023-10-22T09:40:30.116Z,1001.41
2023-10-22T09:41:30.289Z,1001.41
2023-10-22T09:42:30.146Z,1001.42
2023-10-22T09:43:30.098Z,1001.44
2023-10-22T09:44:30.083Z,1001.43
2023-10-22T09:45:30.128Z,1001.49
2023-10-22T09:46:30.053Z,1001.56
2023-10-22T09:47:30.074Z,1001.55
2023-10-22T09:48:30.085Z,1001.60
2023-10-22T09:49:30.013Z,1001.60
2023-10-22T09:50:29.972Z,1001.62
2023-10-22T09:51:30.015Z,1001.66
2023-10-22T09:52:29.959Z,1001.66
2023-10-22T09:53:29.968Z,1001.59
2023-10-22T09:54:29.999Z,1001.62
2023-10-22T09:55:29.915Z,1001.62
2023-10-22T09:56:30.851Z,1001.64
2023-10-22T09:57:29.990Z,1001.64
2023-10-22T09:58:29.881Z,1001.63
2023-10-22T09:59:29.881Z,1001.65
2023-10-22T10:00:39.647Z,1001.66
2023-10-22T10:01:30.935Z,1001.69
2023-10-22T10:02:29.913Z,1001.70
2023-10-22T10:03:29.913Z,1001.76
2023-10-22T10:04:29.861Z,1001.77
2023-10-22T10:05:29.790Z,1001.81
2023-10-22T10:06:29.864Z,1001.79
2023-10-22T10:07:29.803Z,1001.79
2023-10-22T10:08:29.739Z,1001.81
2023-10-22T10:09:29.776Z,1001.82
2023-10-22T10:10:29.712Z,1001.80
2023-10-22T10:11:29.701Z,1001.82
2023-10-22T10:12:29.842Z,1001.84
2023-10-22T10:13:29.680Z,1001.82
2023-10-22T10:14:29.682Z,1001.82
2023-10-22T10:15:29.748Z,1001.87
2023-10-22T10:16:29.707Z,1001.93
2023-10-22T10:17:29.677Z,1001.92
2023-10-22T10:18:29.725Z,1001.89
2023-10-22T10:19:30.584Z,1001.91
2023-10-22T10:20:29.609Z,1001.91
2023-10-22T10:21:29.603Z,1001.98
2023-10-22T10:22:29.563Z,1002.01
2023-10-22T10:23:29.546Z,1002.03
2023-10-22T10:24:29.623Z,1002.01
2023-10-22T10:25:29.520Z,1002.04
2023-10-22T10:26:29.528Z,1002.08
2023-10-22T10:27:29.591Z,1002.08
2023-10-22T10:28:29.469Z,1002.11
2023-10-22T10:29:29.602Z,1002.12
2023-10-22T10:30:29.525Z,1002.11
2023-10-22T10:31:30.500Z,1002.12
2023-10-22T10:32:29.467Z,1002.14
2023-10-22T10:33:29.564Z,1002.11
2023-10-22T10:34:29.383Z,1002.11
2023-10-22T10:35:29.409Z,1002.17
2023-10-22T10:36:29.454Z,1002.20
2023-10-22T10:37:29.388Z,1002.19
2023-10-22T10:38:29.342Z,1002.22
2023-10-22T10:39:29.381Z,1002.25
2023-10-22T10:40:29.342Z,1002.25
2023-10-22T10:41:29.324Z,1002.24
2023-10-22T10:42:29.375Z,1002.27
2023-10-22T10:43:29.268Z,1002.27
2023-10-22T10:44:29.250Z,1002.29
2023-10-22T10:45:29.273Z,1002.21
2023-10-22T10:46:29.489Z,1002.26
2023-10-22T10:47:29.371Z,1002.26
2023-10-22T10:48:29.301Z,1002.28
2023-10-22T10:49:29.214Z,1002.31
2023-10-22T10:50:29.174Z,1002.32
2023-10-22T10:51:29.242Z,1002.31
2023-10-22T10:52:29.168Z,1002.30
2023-10-22T10:53:39.392Z,1002.33
2023-10-22T10:54:31.154Z,1002.28
2023-10-22T10:55:29.104Z,1002.40
2023-10-22T10:56:29.114Z,1002.34
2023-10-22T10:57:29.130Z,1002.36
2023-10-22T10:58:29.065Z,1002.40
2023-10-22T10:59:29.056Z,1002.36
2023-10-22T11:00:29.077Z,1002.34
2023-10-22T11:01:29.072Z,1002.40
2023-10-22T11:02:29.066Z,1002.47
2023-10-22T11:03:29.010Z,1002.48
2023-10-22T11:04:29.089Z,1002.44
2023-10-22T11:05:29.006Z,1002.45
2023-10-22T11:06:29.083Z,1002.44
2023-10-22T11:07:28.959Z,1002.48
2023-10-22T11:08:31.664Z,1002.46
2023-10-22T11:09:28.977Z,1002.46
2023-10-22T11:10:28.928Z,1002.47
2023-10-22T11:11:28.931Z,1002.44
2023-10-22T11:12:28.953Z,1002.46
2023-10-22T11:13:28.910Z,1002.51
2023-10-22T11:14:28.872Z,1002.45
2023-10-22T11:15:28.874Z,1002.44
2023-10-22T11:16:28.899Z,1002.42
2023-10-22T11:17:28.900Z,1002.39
2023-10-22T11:18:28.918Z,1002.48
2023-10-22T11:19:28.820Z,1002.46
2023-10-22T11:20:29.778Z,1002.47
2023-10-22T11:21:28.808Z,1002.43
2023-10-22T11:22:28.799Z,1002.45
2023-10-22T11:23:28.794Z,1002.44
2023-10-22T11:24:28.799Z,1002.42
2023-10-22T11:25:28.725Z,1002.41
2023-10-22T11:26:28.711Z,1002.49
2023-10-22T11:27:28.710Z,1002.47
2023-10-22T11:28:28.715Z,1002.48
2023-10-22T11:29:28.697Z,1002.53
2023-10-22T11:30:28.742Z,1002.44
2023-10-22T11:31:28.648Z,1002.44
2023-10-22T11:32:28.656Z,1002.47
2023-10-22T11:33:28.722Z,1002.47
2023-10-22T11:34:28.634Z,1002.46
2023-10-22T11:35:28.592Z,1002.49
2023-10-22T11:36:28.658Z,1002.49
2023-10-22T11:37:28.609Z,1002.51
2023-10-22T11:38:28.582Z,1002.58
2023-10-22T11:39:40.657Z,1002.54
2023-10-22T11:40:29.522Z,1002.52
2023-10-22T11:41:29.386Z,1002.53
2023-10-22T11:42:28.557Z,1002.50
2023-10-22T11:43:28.500Z,1002.56
2023-10-22T11:44:28.493Z,1002.54
2023-10-22T11:45:28.484Z,1002.57
2023-10-22T11:46:28.490Z,1002.57
2023-10-22T11:47:32.918Z,1002.64
2023-10-22T11:48:28.685Z,1002.60
2023-10-22T11:49:28.392Z,1002.63
2023-10-22T11:50:28.385Z,1002.65
2023-10-22T11:51:28.416Z,1002.57
2023-10-22T11:52:28.358Z,1002.61
2023-10-22T11:53:28.337Z,1002.60
2023-10-22T11:54:28.425Z,1002.69
2023-10-22T11:55:36.949Z,1002.58
2023-10-22T11:56:29.295Z,1002.65
2023-10-22T11:57:28.317Z,1002.68
2023-10-22T11:58:28.299Z,1002.66
2023-10-22T11:59:28.294Z,1002.66
2023-10-22T12:00:28.412Z,1002.73
2023-10-22T12:01:28.329Z,1002.73
2023-10-22T12:02:28.286Z,1002.76
2023-10-22T12:03:28.365Z,1002.77
2023-10-22T12:04:28.213Z,1002.76
2023-10-22T12:05:28.198Z,1002.81
2023-10-22T12:06:28.261Z,1002.86
2023-10-22T12:07:28.154Z,1002.91
2023-10-22T12:08:28.140Z,1002.89
2023-10-22T12:09:28.257Z,1002.99
2023-10-22T12:10:29.946Z,1003.00
2023-10-22T12:11:28.108Z,1003.03
2023-10-22T12:12:28.817Z,1003.08
2023-10-22T12:13:28.964Z,1003.09
2023-10-22T12:14:29.041Z,1003.03
2023-10-22T12:15:28.113Z,1003.05
2023-10-22T12:16:28.103Z,1003.01
2023-10-22T12:17:28.097Z,1003.09
2023-10-22T12:18:28.137Z,1003.06
2023-10-22T12:19:27.989Z,1003.06
2023-10-22T12:20:28.028Z,1002.98
2023-10-22T12:21:28.048Z,1003.04
2023-10-22T12:22:27.969Z,1003.02
2023-10-22T12:23:38.171Z,1002.99
2023-10-22T12:24:29.047Z,1003.01
2023-10-22T12:25:28.639Z,1002.99
2023-10-22T12:26:27.905Z,1002.95
2023-10-22T12:27:27.998Z,1003.00
2023-10-22T12:28:27.925Z,1003.00
2023-10-22T12:29:27.898Z,1003.05
2023-10-22T12:30:28.350Z,1003.02
2023-10-22T12:31:27.880Z,1003.03
2023-10-22T12:32:27.854Z,1003.08
2023-10-22T12:33:27.921Z,1003.10
2023-10-22T12:34:27.822Z,1003.10
2023-10-22T12:35:27.870Z,1003.11
2023-10-22T12:36:27.987Z,1003.12
2023-10-22T12:37:27.752Z,1003.16
2023-10-22T12:38:28.727Z,1003.16
2023-10-22T12:39:27.816Z,1003.17
2023-10-22T12:40:27.757Z,1003.17
2023-10-22T12:41:28.664Z,1003.25
2023-10-22T12:42:27.837Z,1003.18
2023-10-22T12:43:27.673Z,1003.23
2023-10-22T12:44:27.682Z,1003.21
2023-10-22T12:45:27.708Z,1003.19
2023-10-22T12:46:27.724Z,1003.21
2023-10-22T12:47:27.653Z,1003.28
2023-10-22T12:48:27.707Z,1003.25
2023-10-22T12:49:27.622Z,1003.26
2023-10-22T12:50:27.628Z,1003.20
2023-10-22T12:51:27.705Z,1003.16
2023-10-22T12:52:27.590Z,1003.21
2023-10-22T12:53:27.576Z,1003.27
2023-10-22T12:54:27.620Z,1003.23
2023-10-22T12:55:27.546Z,1003.28
2023-10-22T12:56:27.510Z,1003.26
2023-10-22T12:57:27.587Z,1003.21
2023-10-22T12:58:27.474Z,1003.26
2023-10-22T12:59:28.429Z,1003.25
2023-10-22T13:00:27.575Z,1003.24
2023-10-22T13:01:27.503Z,1003.24
2023-10-22T13:02:27.456Z,1003.26
2023-10-22T13:03:27.583Z,1003.29
2023-10-22T13:04:27.528Z,1003.31
2023-10-22T13:05:27.404Z,1003.28
2023-10-22T13:06:27.494Z,1003.33
2023-10-22T13:07:27.347Z,1003.33
2023-10-22T13:08:27.327Z,1003.38
2023-10-22T13:09:27.391Z,1003.38
2023-10-22T13:10:27.328Z,1003.41
2023-10-22T13:11:27.309Z,1003.45
2023-10-22T13:12:27.345Z,1003.52
2023-10-22T13:13:28.015Z,1003.53
2023-10-22T13:14:27.260Z,1003.53
2023-10-22T13:15:27.328Z,1003.52
2023-10-22T13:16:27.399Z,1003.48
2023-10-22T13:17:27.298Z,1003.51
2023-10-22T13:18:27.350Z,1003.55
2023-10-22T13:19:28.133Z,1003.56
2023-10-22T13:20:28.139Z,1003.62
2023-10-22T13:21:28.160Z,1003.62
2023-10-22T13:22:27.150Z,1003.58
2023-10-22T13:23:27.140Z,1003.53
2023-10-22T13:24:27.159Z,1003.57
2023-10-22T13:25:27.115Z,1003.51
2023-10-22T13:26:27.098Z,1003.55
2023-10-22T13:27:27.134Z,1003.55
2023-10-22T13:28:27.046Z,1003.65
2023-10-22T13:29:27.036Z,1003.51
2023-10-22T13:30:27.133Z,1003.57
2023-10-22T13:31:27.109Z,1003.58
2023-10-22T13:32:27.015Z,1003.56
2023-10-22T13:33:28.061Z,1003.53
2023-10-22T13:34:27.032Z,1003.63
2023-10-22T13:35:27.044Z,1003.54
2023-10-22T13:36:26.996Z,1003.59
2023-10-22T13:37:26.952Z,1003.58
2023-10-22T13:38:26.919Z,1003.62
2023-10-22T13:39:26.944Z,1003.57
2023-10-22T13:40:26.933Z,1003.57
2023-10-22T13:41:26.888Z,1003.64
2023-10-22T13:42:26.963Z,1003.60
2023-10-22T13:43:26.851Z,1003.62
2023-10-22T13:44:26.861Z,1003.63
2023-10-22T13:45:26.916Z,1003.58
2023-10-22T13:46:27.818Z,1003.68
2023-10-22T13:47:26.824Z,1003.68
2023-10-22T13:48:26.906Z,1003.62
2023-10-22T13:49:26.785Z,1003.63
2023-10-22T13:51:15.117Z,1003.63
2023-10-22T13:51:30.704Z,1003.56
2023-10-22T13:52:26.761Z,1003.44
2023-10-22T13:53:26.763Z,1003.48
2023-10-22T13:54:26.752Z,1003.54
2023-10-22T13:55:26.785Z,1003.55
2023-10-22T13:56:26.689Z,1003.50
2023-10-22T13:57:26.696Z,1003.46
2023-10-22T13:58:26.648Z,1003.54
2023-10-22T13:59:26.667Z,1003.53
2023-10-22T14:00:26.910Z,1003.54
2023-10-22T14:01:26.634Z,1003.53
2023-10-22T14:02:26.624Z,1003.54
2023-10-22T14:03:27.491Z,1003.47
2023-10-22T14:04:26.825Z,1003.49
2023-10-22T14:05:26.581Z,1003.46
2023-10-22T14:06:26.634Z,1003.46
2023-10-22T14:07:26.533Z,1003.47
2023-10-22T14:08:26.524Z,1003.47
2023-10-22T14:09:26.552Z,1003.53
2023-10-22T14:10:26.490Z,1003.56
2023-10-22T14:11:26.491Z,1003.55
2023-10-22T14:12:26.583Z,1003.44
2023-10-22T14:13:26.488Z,1003.50
2023-10-22T14:14:27.135Z,1003.52
2023-10-22T14:15:28.918Z,1003.57
2023-10-22T14:16:26.523Z,1003.58
2023-10-22T14:17:26.423Z,1003.57
2023-10-22T14:18:26.498Z,1003.57
2023-10-22T14:20:38.384Z,1003.71
2023-10-22T14:21:46.768Z,1003.68
2023-10-22T14:22:37.902Z,1003.61
2023-10-22T14:23:37.913Z,1003.73
2023-10-22T14:24:38.126Z,1003.72
2023-10-22T14:25:37.865Z,1003.65
2023-10-22T14:26:37.851Z,1003.70
2023-10-22T14:29:15.104Z,1003.78
2023-10-22T14:29:19.776Z,1003.74
2023-10-22T14:30:19.830Z,1003.77
2023-10-22T14:31:19.771Z,1003.78
2023-10-22T14:32:19.747Z,1003.87
2023-10-22T14:33:19.754Z,1003.94
2023-10-22T14:34:25.158Z,1004.03
2023-10-22T14:35:20.703Z,1003.76
2023-10-22T14:36:19.713Z,1003.84
2023-10-22T14:37:31.420Z,1003.89
2023-10-22T14:38:19.641Z,1003.83
2023-10-22T14:39:29.254Z,1003.90
2023-10-22T14:40:19.624Z,1003.83
2023-10-22T14:41:19.600Z,1003.78
2023-10-22T14:42:19.653Z,1003.83
2023-10-22T14:43:19.600Z,1003.93
2023-10-22T14:44:19.597Z,1003.86
2023-10-22T14:45:19.634Z,1003.89
2023-10-22T14:46:19.586Z,1003.93
2023-10-22T14:47:19.558Z,1004.01
2023-10-22T14:48:19.593Z,1003.96
2023-10-22T14:49:19.534Z,1003.99
2023-10-22T14:51:54.514Z,1004.06
2023-10-22T14:52:01.540Z,1003.93
2023-10-22T14:52:59.192Z,1003.86
2023-10-22T14:53:59.188Z,1003.92
2023-10-22T14:54:59.141Z,1003.93
2023-10-22T14:55:59.138Z,1003.97
2023-10-22T14:56:59.539Z,1003.91
2023-10-22T14:57:59.088Z,1003.98
2023-10-22T14:58:59.077Z,1003.93
2023-10-22T14:59:59.190Z,1004.02
2023-10-22T15:00:59.109Z,1004.06
2023-10-22T15:01:59.073Z,1004.14
2023-10-22T15:03:29.745Z,1004.12
2023-10-22T15:03:59.282Z,1004.04
2023-10-22T15:05:01.769Z,1004.02
2023-10-22T15:05:59.081Z,1004.03
2023-10-22T15:06:58.979Z,1004.04
2023-10-22T15:07:58.991Z,1004.11
2023-10-22T15:08:59.084Z,1004.14
2023-10-22T15:09:58.962Z,1004.11
2023-10-22T15:10:58.949Z,1004.13
2023-10-22T15:11:58.967Z,1004.14
2023-10-22T15:12:58.932Z,1004.13
2023-10-22T15:13:58.884Z,1004.18
2023-10-22T15:14:58.986Z,1004.16
2023-10-22T15:15:58.965Z,1004.18
2023-10-22T15:16:58.845Z,1004.32
2023-10-22T15:17:58.912Z,1004.25
2023-10-22T15:18:58.836Z,1004.30
2023-10-22T15:19:58.816Z,1004.34
2023-10-22T15:20:58.822Z,1004.31
2023-10-22T15:21:59.503Z,1004.35
2023-10-22T15:22:58.796Z,1004.37
2023-10-22T15:23:58.798Z,1004.34
2023-10-22T15:24:58.753Z,1004.28
2023-10-22T15:25:58.715Z,1004.27
2023-10-22T15:26:59.538Z,1004.28
2023-10-22T15:27:58.747Z,1004.26
2023-10-22T15:28:58.694Z,1004.33
2023-10-22T15:29:58.718Z,1004.34
2023-10-22T15:30:58.652Z,1004.38
2023-10-22T15:31:58.703Z,1004.42
2023-10-22T15:32:58.681Z,1004.43
2023-10-22T15:33:58.633Z,1004.44
2023-10-22T15:34:58.591Z,1004.45
2023-10-22T15:35:58.688Z,1004.45
2023-10-22T15:36:58.598Z,1004.44
2023-10-22T15:37:58.568Z,1004.49
2023-10-22T15:38:58.635Z,1004.51
2023-10-22T15:39:58.588Z,1004.51
2023-10-22T15:40:58.541Z,1004.54
2023-10-22T15:41:58.579Z,1004.52
2023-10-22T15:42:58.486Z,1004.47
2023-10-22T15:44:01.201Z,1004.49
2023-10-22T15:44:58.570Z,1004.41
2023-10-22T15:45:58.433Z,1004.46
2023-10-22T15:46:59.135Z,1004.43
2023-10-22T15:47:58.567Z,1004.40
2023-10-22T15:48:58.500Z,1004.49
2023-10-22T15:49:58.459Z,1004.57
2023-10-22T15:50:58.416Z,1004.57
2023-10-22T15:51:58.377Z,1004.58
2023-10-22T15:52:58.376Z,1004.61
2023-10-22T15:53:58.514Z,1004.61
2023-10-22T15:54:58.383Z,1004.61
2023-10-22T15:55:58.311Z,1004.61
2023-10-22T15:56:58.479Z,1004.58
2023-10-22T15:57:58.356Z,1004.57
2023-10-22T15:58:58.300Z,1004.57
2023-10-22T15:59:58.307Z,1004.58
2023-10-22T16:00:58.298Z,1004.58
2023-10-22T16:01:58.263Z,1004.64
2023-10-22T16:02:58.316Z,1004.65
2023-10-22T16:03:58.613Z,1004.65
2023-10-22T16:04:58.242Z,1004.66
2023-10-22T16:05:58.173Z,1004.67
2023-10-22T16:06:58.187Z,1004.68
2023-10-22T16:07:58.177Z,1004.72
2023-10-22T16:08:58.180Z,1004.74
2023-10-22T16:09:58.129Z,1004.75
2023-10-22T16:10:58.113Z,1004.76
2023-10-22T16:11:58.089Z,1004.75
2023-10-22T16:12:58.081Z,1004.75
2023-10-22T16:13:58.098Z,1004.74
2023-10-22T16:14:58.128Z,1004.79
2023-10-22T16:15:58.153Z,1004.84
2023-10-22T16:16:58.057Z,1004.79
2023-10-22T16:17:58.096Z,1004.80
2023-10-22T16:18:58.073Z,1004.83
2023-10-22T16:19:58.012Z,1004.83
2023-10-22T16:20:58.034Z,1004.84
2023-10-22T16:21:57.982Z,1004.88
2023-10-22T16:22:57.976Z,1004.87
2023-10-22T16:23:57.930Z,1004.90
2023-10-22T16:24:57.948Z,1004.90
2023-10-22T16:25:57.897Z,1004.95
2023-10-22T16:26:57.920Z,1004.91
2023-10-22T16:27:57.900Z,1004.92
2023-10-22T16:28:59.012Z,1004.91
2023-10-22T16:29:57.868Z,1004.95
2023-10-22T16:30:57.864Z,1004.97
2023-10-22T16:31:57.825Z,1004.97
2023-10-22T16:32:58.186Z,1004.99
2023-10-22T16:33:57.883Z,1004.96
2023-10-22T16:34:57.803Z,1004.98
2023-10-22T16:35:57.764Z,1004.96
2023-10-22T16:36:58.713Z,1005.00
2023-10-22T16:37:57.739Z,1005.03
2023-10-22T16:38:57.755Z,1005.00
2023-10-22T16:39:57.736Z,1005.01
2023-10-22T16:40:57.704Z,1005.02
2023-10-22T16:41:57.680Z,1005.07
2023-10-22T16:42:57.682Z,1005.15
2023-10-22T16:43:57.656Z,1005.20
2023-10-22T16:44:57.715Z,1005.18
2023-10-22T16:45:57.704Z,1005.17
2023-10-22T16:46:57.644Z,1005.22
2023-10-22T16:47:57.658Z,1005.24
2023-10-22T16:48:58.338Z,1005.22
2023-10-22T16:49:57.605Z,1005.24
2023-10-22T16:50:57.652Z,1005.27
2023-10-22T16:51:57.575Z,1005.34
2023-10-22T16:52:57.566Z,1005.33
2023-10-22T16:53:57.520Z,1005.32
2023-10-22T16:54:58.217Z,1005.31
2023-10-22T16:55:57.490Z,1005.34
2023-10-22T16:56:57.544Z,1005.29
2023-10-22T16:57:57.494Z,1005.27
2023-10-22T16:58:57.457Z,1005.20
2023-10-22T16:59:57.467Z,1005.19
2023-10-22T17:00:57.451Z,1005.21
2023-10-22T17:01:57.480Z,1005.32
2023-10-22T17:02:58.500Z,1005.32
2023-10-22T17:03:57.562Z,1005.32
2023-10-22T17:04:57.406Z,1005.35
2023-10-22T17:05:57.358Z,1005.36
2023-10-22T17:06:58.308Z,1005.36
2023-10-22T17:07:57.339Z,1005.36
2023-10-22T17:08:57.359Z,1005.38
2023-10-22T17:09:57.335Z,1005.41
2023-10-22T17:10:57.299Z,1005.44
2023-10-22T17:11:57.313Z,1005.46
2023-10-22T17:12:57.283Z,1005.47
2023-10-22T17:13:57.296Z,1005.52
2023-10-22T17:14:57.372Z,1005.55
2023-10-22T17:15:57.322Z,1005.55
2023-10-22T17:16:58.257Z,1005.61
2023-10-22T17:17:57.282Z,1005.61
2023-10-22T17:18:57.500Z,1005.59
2023-10-22T17:19:57.286Z,1005.65
2023-10-22T17:20:57.205Z,1005.64
2023-10-22T17:21:57.153Z,1005.65
2023-10-22T17:22:57.171Z,1005.66
2023-10-22T17:23:57.125Z,1005.70
2023-10-22T17:24:57.157Z,1005.72
2023-10-22T17:25:57.099Z,1005.74
2023-10-22T17:26:57.151Z,1005.79
2023-10-22T17:27:57.100Z,1005.79
2023-10-22T17:28:57.063Z,1005.80
2023-10-22T17:29:57.089Z,1005.79
2023-10-22T17:30:57.076Z,1005.78
2023-10-22T17:31:57.024Z,1005.84
2023-10-22T17:32:57.085Z,1005.87
2023-10-22T17:34:05.764Z,1005.90
2023-10-22T17:34:58.015Z,1005.89
2023-10-22T17:35:56.971Z,1005.89
2023-10-22T17:36:56.983Z,1005.90
2023-10-22T17:37:56.982Z,1005.93
2023-10-22T17:38:56.959Z,1005.98
2023-10-22T17:39:56.932Z,1005.99
2023-10-22T17:40:56.899Z,1006.05
2023-10-22T17:41:56.884Z,1006.06
2023-10-22T17:42:56.876Z,1006.10
2023-10-22T17:43:56.862Z,1006.08
2023-10-22T17:44:56.889Z,1006.07
2023-10-22T17:45:56.848Z,1006.07
2023-10-22T17:46:56.957Z,1006.09
2023-10-22T17:47:56.853Z,1006.09
2023-10-22T17:48:56.838Z,1006.18
2023-10-22T17:49:56.808Z,1006.17
2023-10-22T17:50:56.828Z,1006.19
2023-10-22T17:51:56.754Z,1006.23
2023-10-22T17:52:56.741Z,1006.25
2023-10-22T17:53:56.764Z,1006.28
2023-10-22T17:54:56.744Z,1006.32
2023-10-22T17:56:08.455Z,1006.29
2023-10-22T17:56:57.783Z,1006.28
2023-10-22T17:57:56.728Z,1006.31
2023-10-22T17:58:56.687Z,1006.28
2023-10-22T17:59:56.670Z,1006.30
2023-10-22T18:00:56.757Z,1006.30
2023-10-22T18:01:56.633Z,1006.32
2023-10-22T18:02:56.757Z,1006.34
2023-10-22T18:03:56.639Z,1006.35
2023-10-22T18:04:56.589Z,1006.38
2023-10-22T18:05:56.567Z,1006.44
2023-10-22T18:06:56.594Z,1006.40
2023-10-22T18:07:56.587Z,1006.40
2023-10-22T18:08:56.605Z,1006.43
2023-10-22T18:09:56.562Z,1006.42
2023-10-22T18:10:56.526Z,1006.44
2023-10-22T18:11:56.497Z,1006.47
2023-10-22T18:12:56.507Z,1006.47
2023-10-22T18:13:56.485Z,1006.46
2023-10-22T18:14:56.518Z,1006.49
2023-10-22T18:15:56.468Z,1006.49
2023-10-22T18:16:56.474Z,1006.47
2023-10-22T18:17:56.421Z,1006.50
2023-10-22T18:18:58.272Z,1006.49
2023-10-22T18:20:01.683Z,1006.53
2023-10-22T18:20:57.408Z,1006.57
2023-10-22T18:21:56.349Z,1006.52
2023-10-22T18:22:56.348Z,1006.60
2023-10-22T18:23:56.348Z,1006.66
2023-10-22T18:24:56.341Z,1006.57
2023-10-22T18:25:56.317Z,1006.58
2023-10-22T18:26:56.320Z,1006.57
2023-10-22T18:27:56.271Z,1006.55
2023-10-22T18:28:56.289Z,1006.56
2023-10-22T18:29:56.300Z,1006.60
2023-10-22T18:30:56.334Z,1006.60
2023-10-22T18:31:57.627Z,1006.60
2023-10-22T18:32:56.314Z,1006.63
2023-10-22T18:33:56.263Z,1006.60
2023-10-22T18:35:00.067Z,1006.64
2023-10-22T18:35:56.211Z,1006.63
2023-10-22T18:36:56.186Z,1006.65
2023-10-22T18:37:56.219Z,1006.62
2023-10-22T18:38:56.207Z,1006.62
2023-10-22T18:39:56.144Z,1006.67
2023-10-22T18:40:56.119Z,1006.62
2023-10-22T18:42:07.954Z,1006.76
2023-10-22T18:42:57.122Z,1006.76
2023-10-22T18:43:56.063Z,1006.72
2023-10-22T18:44:56.124Z,1006.81
2023-10-22T18:45:56.036Z,1006.78
2023-10-22T18:46:56.058Z,1006.80
2023-10-22T18:47:56.083Z,1006.82
2023-10-22T18:48:56.074Z,1006.81
2023-10-22T18:49:56.018Z,1006.77
2023-10-22T18:50:56.012Z,1006.85
2023-10-22T18:51:56.037Z,1006.81
2023-10-22T18:52:55.978Z,1006.85
2023-10-22T18:53:55.931Z,1006.88
2023-10-22T18:54:55.953Z,1006.87
2023-10-22T18:55:55.904Z,1006.90
2023-10-22T18:56:55.947Z,1006.91
2023-10-22T18:57:55.903Z,1006.91
2023-10-22T18:58:55.895Z,1006.93
2023-10-22T18:59:55.883Z,1006.98
2023-10-22T19:00:55.906Z,1006.95
2023-10-22T19:01:55.849Z,1006.94
2023-10-22T19:02:55.980Z,1006.97
2023-10-22T19:03:55.999Z,1006.98
2023-10-22T19:04:55.793Z,1007.02
2023-10-22T19:05:55.776Z,1007.01
2023-10-22T19:06:55.790Z,1007.04
2023-10-22T19:07:55.771Z,1007.10
2023-10-22T19:08:55.798Z,1007.11
2023-10-22T19:09:55.742Z,1007.13
2023-10-22T19:10:55.704Z,1007.13
2023-10-22T19:11:55.719Z,1007.15
2023-10-22T19:12:55.703Z,1007.15
2023-10-22T19:13:55.657Z,1007.16
2023-10-22T19:14:55.694Z,1007.16
2023-10-22T19:15:55.654Z,1007.20
2023-10-22T19:16:55.647Z,1007.22
2023-10-22T19:17:55.678Z,1007.21
2023-10-22T19:18:55.690Z,1007.22
2023-10-22T19:19:55.615Z,1007.24
2023-10-22T19:20:55.629Z,1007.31
2023-10-22T19:21:55.553Z,1007.30
2023-10-22T19:22:55.569Z,1007.26
2023-10-22T19:23:55.536Z,1007.35
2023-10-22T19:24:55.596Z,1007.31
2023-10-22T19:25:55.538Z,1007.38
2023-10-22T19:26:55.529Z,1007.36
2023-10-22T19:27:55.505Z,1007.35
2023-10-22T19:28:55.513Z,1007.35
2023-10-22T19:29:55.473Z,1007.34
2023-10-22T19:30:55.770Z,1007.40
2023-10-22T19:31:55.424Z,1007.40
2023-10-22T19:32:55.558Z,1007.38
2023-10-22T19:33:55.539Z,1007.45
2023-10-22T19:34:55.412Z,1007.48
2023-10-22T19:35:55.366Z,1007.48
2023-10-22T19:36:55.384Z,1007.48
2023-10-22T19:37:55.369Z,1007.49
2023-10-22T19:38:55.364Z,1007.50
2023-10-22T19:39:55.338Z,1007.51
2023-10-22T19:40:55.314Z,1007.48
2023-10-22T19:41:55.311Z,1007.52
2023-10-22T19:42:55.302Z,1007.56
2023-10-22T19:43:55.286Z,1007.53
2023-10-22T19:44:55.307Z,1007.53
2023-10-22T19:45:55.299Z,1007.54
2023-10-22T19:46:55.248Z,1007.55
2023-10-22T19:47:55.235Z,1007.56
2023-10-22T19:48:55.195Z,1007.56
2023-10-22T19:49:55.182Z,1007.57
2023-10-22T19:50:55.195Z,1007.58
2023-10-22T19:51:55.176Z,1007.58
2023-10-22T19:52:55.170Z,1007.59
2023-10-22T19:53:55.132Z,1007.61
2023-10-22T19:54:55.141Z,1007.56
2023-10-22T19:55:55.130Z,1007.65
2023-10-22T19:56:55.152Z,1007.61
2023-10-22T19:57:55.114Z,1007.62
2023-10-22T19:58:55.095Z,1007.65
2023-10-22T19:59:55.074Z,1007.67
2023-10-22T20:00:55.040Z,1007.67
2023-10-22T20:02:06.737Z,1007.67
2023-10-22T20:02:56.376Z,1007.68
2023-10-22T20:03:55.472Z,1007.67
2023-10-22T20:04:55.155Z,1007.69
2023-10-22T20:05:54.992Z,1007.77
2023-10-22T20:06:54.953Z,1007.73
2023-10-22T20:07:54.965Z,1007.74
2023-10-22T20:08:54.990Z,1007.75
2023-10-22T20:09:54.987Z,1007.74
2023-10-22T20:10:54.903Z,1007.75
2023-10-22T20:11:54.913Z,1007.75
2023-10-22T20:12:54.874Z,1007.76
2023-10-22T20:13:54.895Z,1007.76
2023-10-22T20:14:54.904Z,1007.75
2023-10-22T20:15:54.948Z,1007.77
2023-10-22T20:16:54.825Z,1007.80
2023-10-22T20:17:54.823Z,1007.83
2023-10-22T20:18:54.802Z,1007.81
2023-10-22T20:19:54.791Z,1007.80
2023-10-22T20:20:54.808Z,1007.82
2023-10-22T20:21:54.827Z,1007.83
2023-10-22T20:22:54.750Z,1007.85
2023-10-22T20:23:54.768Z,1007.84
2023-10-22T20:24:54.785Z,1007.80
2023-10-22T20:25:54.729Z,1007.85
2023-10-22T20:26:54.768Z,1007.81
2023-10-22T20:27:54.706Z,1007.80
2023-10-22T20:28:54.668Z,1007.83
2023-10-22T20:29:54.674Z,1007.82
2023-10-22T20:30:54.632Z,1007.81
2023-10-22T20:31:54.689Z,1007.84
2023-10-22T20:32:54.740Z,1007.83
2023-10-22T20:33:54.669Z,1007.89
2023-10-22T20:34:54.584Z,1007.87
2023-10-22T20:35:54.596Z,1007.85
2023-10-22T20:36:54.586Z,1007.86
2023-10-22T20:37:54.577Z,1007.92
2023-10-22T20:38:54.589Z,1007.86
2023-10-22T20:39:54.606Z,1007.93
2023-10-22T20:40:56.556Z,1007.94
2023-10-22T20:41:54.519Z,1007.94
2023-10-22T20:42:54.487Z,1007.92
2023-10-22T20:43:54.466Z,1007.91
2023-10-22T20:44:54.506Z,1007.92
2023-10-22T20:45:54.655Z,1007.91
2023-10-22T20:46:54.429Z,1007.97
2023-10-22T20:47:54.494Z,1007.97
2023-10-22T20:48:54.462Z,1007.95
2023-10-22T20:49:54.391Z,1008.03
2023-10-22T20:50:54.432Z,1008.00
2023-10-22T20:51:54.383Z,1007.99
2023-10-22T20:52:54.374Z,1008.00
2023-10-22T20:53:54.353Z,1008.06
2023-10-22T20:54:54.573Z,1008.05
2023-10-22T20:55:54.307Z,1008.08
2023-10-22T20:56:54.352Z,1008.02
2023-10-22T20:57:54.309Z,1008.04
2023-10-22T20:58:54.301Z,1008.03
2023-10-22T20:59:54.292Z,1008.06
2023-10-22T21:00:54.240Z,1008.03
2023-10-22T21:01:54.374Z,1008.03
2023-10-22T21:02:54.316Z,1008.03
2023-10-22T21:03:54.370Z,1008.08
2023-10-22T21:04:54.241Z,1008.05
2023-10-22T21:05:54.197Z,1008.07
2023-10-22T21:06:54.164Z,1008.06
2023-10-22T21:07:54.180Z,1008.09
2023-10-22T21:08:54.254Z,1008.11
2023-10-22T21:09:54.121Z,1008.16
2023-10-22T21:10:54.140Z,1008.13
2023-10-22T21:11:54.090Z,1008.12
2023-10-22T21:12:54.113Z,1008.11
2023-10-22T21:13:54.102Z,1008.14
2023-10-22T21:14:54.111Z,1008.08
2023-10-22T21:15:54.084Z,1008.16
2023-10-22T21:16:54.068Z,1008.15
2023-10-22T21:17:54.042Z,1008.22
2023-10-22T21:18:54.030Z,1008.16
2023-10-22T21:19:54.014Z,1008.15
2023-10-22T21:20:53.999Z,1008.14
2023-10-22T21:21:54.051Z,1008.12
2023-10-22T21:22:53.958Z,1008.12
2023-10-22T21:23:53.933Z,1008.12
2023-10-22T21:24:53.995Z,1008.16
2023-10-22T21:25:53.934Z,1008.17
2023-10-22T21:26:53.959Z,1008.20
2023-10-22T21:27:53.905Z,1008.19
2023-10-22T21:28:53.869Z,1008.11
2023-10-22T21:29:53.851Z,1008.15
2023-10-22T21:30:53.870Z,1008.16
2023-10-22T21:31:53.857Z,1008.15
2023-10-22T21:32:53.884Z,1008.13
2023-10-22T21:33:53.884Z,1008.12
2023-10-22T21:34:53.815Z,1008.18
2023-10-22T21:35:53.801Z,1008.14
2023-10-22T21:36:53.840Z,1008.13
2023-10-22T21:37:53.796Z,1008.15